createdAt,value
2022-09-28T00:01:29.802Z,35.60
2022-09-28T00:03:59.865Z,30.48
2022-09-28T00:06:30.246Z,34.95
2022-09-28T00:11:29.939Z,27.50
2022-09-28T00:14:02.563Z,26.58
2022-09-28T00:16:33.174Z,24.52
2022-09-28T00:19:02.877Z,18.55
2022-09-28T00:21:33.378Z,17.77
2022-09-28T00:24:16.200Z,18.58
2022-09-28T00:26:48.421Z,16.55
2022-09-28T00:29:20.957Z,13.93
2022-09-28T00:31:54.145Z,18.40
2022-09-28T00:34:34.803Z,17.33
2022-09-28T00:37:06.458Z,15.73
2022-09-28T00:39:38.428Z,18.42
2022-09-28T00:42:17.764Z,16.00
2022-09-28T00:44:51.986Z,14.63
2022-09-28T00:47:44.320Z,15.65
2022-09-28T00:50:19.360Z,15.57
2022-09-28T00:52:53.309Z,15.20
2022-09-28T00:55:31.564Z,18.27
2022-09-28T00:58:04.926Z,16.63
2022-09-28T01:00:34.080Z,15.82
2022-09-28T01:03:05.169Z,19.35
2022-09-28T01:05:36.031Z,13.50
2022-09-28T01:08:07.500Z,11.57
2022-09-28T01:10:36.225Z,13.32
2022-09-28T01:13:06.325Z,10.75
2022-09-28T01:15:41.591Z,11.95
2022-09-28T01:18:17.929Z,11.70
2022-09-28T01:20:54.196Z,10.07
2022-09-28T01:23:49.209Z,9.73
2022-09-28T01:26:43.195Z,9.68
2022-09-28T01:29:18.789Z,10.25
2022-09-28T01:31:53.092Z,12.02
2022-09-28T01:34:25.990Z,11.05
2022-09-28T01:36:56.906Z,10.27
2022-09-28T01:39:29.711Z,8.82
2022-09-28T01:42:03.285Z,6.70
2022-09-28T01:44:33.157Z,7.95
2022-09-28T01:47:04.510Z,9.25
2022-09-28T01:49:36.417Z,10.25
2022-09-28T01:52:11.114Z,9.80
2022-09-28T01:54:44.043Z,10.18
2022-09-28T01:57:17.180Z,9.80
2022-09-28T01:59:51.612Z,8.60
2022-09-28T02:02:23.333Z,8.43
2022-09-28T02:04:55.496Z,10.48
2022-09-28T02:07:27.769Z,11.73
2022-09-28T02:09:58.638Z,7.72
2022-09-28T02:12:32.574Z,7.82
2022-09-28T02:15:08.600Z,8.38
2022-09-28T02:17:37.252Z,6.85
2022-09-28T02:20:07.558Z,7.38
2022-09-28T02:22:40.750Z,7.28
2022-09-28T02:25:11.653Z,7.30
2022-09-28T02:27:45.115Z,6.40
2022-09-28T02:30:14.774Z,8.40
2022-09-28T02:32:46.683Z,8.65
2022-09-28T02:35:18.494Z,9.80
2022-09-28T02:37:48.222Z,9.38
2022-09-28T02:40:18.035Z,9.50
2022-09-28T02:42:55.184Z,9.85
2022-09-28T02:45:32.461Z,11.20
2022-09-28T02:48:09.897Z,13.13
2022-09-28T02:50:44.941Z,13.18
2022-09-28T02:53:40.302Z,11.15
2022-09-28T02:56:22.096Z,14.05
2022-09-28T02:59:00.448Z,11.85
2022-09-28T03:01:32.741Z,13.75
2022-09-28T03:04:09.088Z,14.52
2022-09-28T03:06:42.157Z,12.48
2022-09-28T03:09:14.327Z,16.08
2022-09-28T03:11:46.957Z,20.08
2022-09-28T03:14:18.131Z,21.67
2022-09-28T03:16:52.626Z,25.92
2022-09-28T03:19:25.478Z,21.50
2022-09-28T03:21:54.825Z,27.27
2022-09-28T03:24:23.508Z,22.55
2022-09-28T03:26:53.457Z,16.95
2022-09-28T03:29:23.730Z,19.40
2022-09-28T03:31:58.974Z,21.30
2022-09-28T03:34:27.717Z,21.13
2022-09-28T03:36:56.881Z,22.40
2022-09-28T03:39:25.843Z,27.55
2022-09-28T03:41:54.561Z,22.95
2022-09-28T03:44:25.328Z,29.08
2022-09-28T03:46:53.603Z,23.40
2022-09-28T03:49:22.363Z,26.55
2022-09-28T03:51:51.694Z,28.23
2022-09-28T03:54:20.459Z,23.65
2022-09-28T03:56:49.118Z,22.73
2022-09-28T03:59:18.950Z,28.58
2022-09-28T04:01:50.164Z,28.05
2022-09-28T04:04:19.365Z,27.90
2022-09-28T04:06:48.009Z,30.33
2022-09-28T04:09:17.556Z,32.45
2022-09-28T04:14:33.007Z,31.10
2022-09-28T04:17:03.056Z,28.95
2022-09-28T04:19:33.411Z,34.58
2022-09-28T04:22:25.074Z,29.80
2022-09-28T04:24:54.039Z,31.02
2022-09-28T04:27:39.965Z,33.45
2022-09-28T04:30:10.396Z,31.77
2022-09-28T04:32:42.087Z,31.90
2022-09-28T04:35:12.065Z,30.25
2022-09-28T04:37:40.453Z,32.20
2022-09-28T04:40:10.309Z,35.40
2022-09-28T04:42:39.748Z,29.70
2022-09-28T04:45:09.817Z,34.53
2022-09-28T04:47:43.188Z,30.50
2022-09-28T04:50:21.164Z,34.05
2022-09-28T04:53:12.721Z,31.80
2022-09-28T04:55:41.380Z,34.05
2022-09-28T04:58:10.023Z,30.58
2022-09-28T05:00:40.531Z,36.15
2022-09-28T05:03:21.095Z,31.13
2022-09-28T05:06:08.685Z,32.15
2022-09-28T05:08:44.927Z,37.40
2022-09-28T05:11:14.808Z,31.10
2022-09-28T05:13:45.470Z,26.50
2022-09-28T05:16:17.116Z,26.67
2022-09-28T05:19:06.623Z,27.60
2022-09-28T05:21:35.356Z,27.83
2022-09-28T05:24:07.653Z,26.77
2022-09-28T05:26:38.666Z,23.67
2022-09-28T05:31:55.857Z,28.20
2022-09-28T05:34:47.986Z,23.10
2022-09-28T05:37:22.921Z,24.02
2022-09-28T05:39:51.723Z,24.25
2022-09-28T05:42:21.484Z,26.17
2022-09-28T05:44:50.149Z,30.50
2022-09-28T05:47:20.329Z,28.77
2022-09-28T05:49:50.147Z,26.17
2022-09-28T05:52:19.003Z,23.13
2022-09-28T05:54:47.935Z,24.63
2022-09-28T05:57:17.158Z,23.58
2022-09-28T05:59:46.075Z,23.70
2022-09-28T06:02:15.448Z,23.08
2022-09-28T06:07:15.399Z,25.95
2022-09-28T06:09:45.172Z,26.90
2022-09-28T06:12:20.008Z,22.58
2022-09-28T06:14:57.314Z,29.67
2022-09-28T06:17:26.109Z,24.90
2022-09-28T06:20:17.712Z,35.20
2022-09-28T06:22:59.521Z,24.63
2022-09-28T06:27:58.325Z,24.05
2022-09-28T06:30:28.799Z,26.08
2022-09-28T06:32:59.200Z,21.05
2022-09-28T06:35:30.546Z,20.75
2022-09-28T06:38:01.207Z,22.77
2022-09-28T06:42:59.405Z,19.73
2022-09-28T06:45:52.444Z,19.75
2022-09-28T06:48:47.211Z,23.77
2022-09-28T06:51:36.882Z,17.75
2022-09-28T06:54:25.691Z,16.08
2022-09-28T06:57:09.372Z,15.90
2022-09-28T06:59:38.682Z,16.88
2022-09-28T07:02:07.989Z,17.30
2022-09-28T07:04:55.236Z,16.95
2022-09-28T07:07:44.954Z,17.67
2022-09-28T07:10:29.537Z,16.88
2022-09-28T07:13:46.421Z,19.48
2022-09-28T07:16:10.639Z,16.75
2022-09-28T07:18:39.357Z,13.55
2022-09-28T07:21:12.892Z,16.60
2022-09-28T07:23:52.782Z,13.75
2022-09-28T07:26:26.930Z,13.25
2022-09-28T07:29:06.882Z,12.23
2022-09-28T07:31:55.075Z,12.98
2022-09-28T07:34:44.862Z,12.13
2022-09-28T07:37:18.974Z,13.43
2022-09-28T07:40:14.106Z,13.70
2022-09-28T07:42:44.854Z,10.63
2022-09-28T07:45:15.124Z,17.90
2022-09-28T07:47:44.032Z,13.80
2022-09-28T07:50:38.880Z,12.88
2022-09-28T07:53:23.339Z,10.02
2022-09-28T07:56:10.619Z,9.27
2022-09-28T07:58:49.357Z,10.43
2022-09-28T08:01:44.478Z,9.55
2022-09-28T08:04:20.659Z,10.32
2022-09-28T08:06:49.440Z,12.32
2022-09-28T08:09:18.571Z,11.80
2022-09-28T08:12:06.350Z,11.90
2022-09-28T08:14:45.656Z,12.02
2022-09-28T08:17:33.331Z,10.55
2022-09-28T08:20:24.788Z,12.30
2022-09-28T08:22:53.681Z,12.20
2022-09-28T08:25:22.616Z,11.02
2022-09-28T08:27:52.108Z,10.40
2022-09-28T08:30:25.174Z,9.02
2022-09-28T08:33:04.353Z,10.40
2022-09-28T08:35:46.119Z,10.05
2022-09-28T08:38:32.811Z,8.68
2022-09-28T08:41:16.336Z,8.48
2022-09-28T08:44:19.530Z,7.57
2022-09-28T08:47:36.518Z,9.35
2022-09-28T08:50:33.401Z,9.90
2022-09-28T08:53:27.377Z,13.57
2022-09-28T08:56:29.626Z,7.65
2022-09-28T08:59:01.630Z,7.95
2022-09-28T09:01:36.080Z,8.32
2022-09-28T09:04:09.332Z,9.10
2022-09-28T09:07:11.965Z,7.32
2022-09-28T09:09:58.107Z,11.98
2022-09-28T09:12:33.849Z,9.60
2022-09-28T09:15:18.500Z,6.40
2022-09-28T09:17:53.843Z,4.43
2022-09-28T09:20:58.487Z,4.15
2022-09-28T09:23:38.554Z,8.27
2022-09-28T09:26:17.129Z,7.30
2022-09-28T09:29:13.779Z,4.55
2022-09-28T09:32:09.182Z,3.70
2022-09-28T09:34:50.837Z,3.60
2022-09-28T09:38:17.503Z,3.95
2022-09-28T09:41:23.261Z,3.78
2022-09-28T09:44:54.914Z,3.20
2022-09-28T09:47:45.090Z,4.43
2022-09-28T09:50:30.180Z,6.07
2022-09-28T09:53:03.882Z,2.90
2022-09-28T09:55:40.372Z,5.05
2022-09-28T09:58:39.576Z,6.22
2022-09-28T10:01:20.810Z,7.75
2022-09-28T10:04:30.710Z,5.70
2022-09-28T10:07:07.284Z,7.05
2022-09-28T10:09:41.083Z,7.22
2022-09-28T10:12:35.258Z,5.38
2022-09-28T10:17:36.530Z,4.82
2022-09-28T10:20:25.758Z,5.32
2022-09-28T10:23:04.053Z,6.93
2022-09-28T10:25:35.620Z,5.10
2022-09-28T10:28:06.699Z,5.57
2022-09-28T10:30:44.647Z,3.58
2022-09-28T10:33:29.486Z,8.07
2022-09-28T10:35:58.741Z,5.47
2022-09-28T10:38:27.773Z,10.15
2022-09-28T10:41:00.883Z,4.30
2022-09-28T10:44:11.197Z,7.53
2022-09-28T10:47:02.686Z,6.20
2022-09-28T10:49:46.577Z,11.38
2022-09-28T10:52:35.291Z,7.25
2022-09-28T10:55:05.705Z,6.32
2022-09-28T11:00:31.757Z,8.75
2022-09-28T11:03:30.858Z,5.53
2022-09-28T11:06:06.154Z,5.75
2022-09-28T11:08:39.900Z,4.25
2022-09-28T11:11:11.993Z,3.22
2022-09-28T11:13:45.993Z,7.32
2022-09-28T11:16:28.708Z,4.47
2022-09-28T11:19:00.500Z,2.95
2022-09-28T11:21:32.259Z,3.85
2022-09-28T11:24:20.144Z,5.68
2022-09-28T11:26:52.997Z,4.22
2022-09-28T11:29:36.535Z,4.50
2022-09-28T11:32:41.424Z,7.05
2022-09-28T11:35:24.156Z,4.40
2022-09-28T11:38:11.194Z,3.38
2022-09-28T11:41:05.141Z,4.35
2022-09-28T11:43:47.187Z,2.15
2022-09-28T11:46:21.321Z,3.85
2022-09-28T11:48:56.200Z,4.55
2022-09-28T11:51:27.672Z,2.58
2022-09-28T11:53:58.527Z,2.72
2022-09-28T11:56:34.132Z,2.03
2022-09-28T11:59:07.226Z,4.32
2022-09-28T12:01:46.649Z,2.35
2022-09-28T12:04:37.099Z,3.00
2022-09-28T12:07:11.469Z,1.73
2022-09-28T12:09:43.743Z,3.22
2022-09-28T12:12:26.196Z,3.60
2022-09-28T12:15:01.149Z,2.40
2022-09-28T12:17:34.904Z,5.15
2022-09-28T12:20:11.232Z,5.60
2022-09-28T12:22:42.268Z,2.85
2022-09-28T12:25:14.466Z,5.07
2022-09-28T12:27:47.756Z,2.63
2022-09-28T12:30:19.468Z,2.35
2022-09-28T12:32:50.904Z,2.38
2022-09-28T12:35:28.971Z,3.58
2022-09-28T12:38:16.650Z,1.88
2022-09-28T12:40:53.617Z,3.78
2022-09-28T12:43:46.796Z,2.15
2022-09-28T12:46:27.320Z,2.80
2022-09-28T12:50:20.088Z,2.67
2022-09-28T12:52:01.603Z,2.25
2022-09-28T12:55:08.521Z,3.53
2022-09-28T12:57:46.513Z,5.35
2022-09-28T13:00:17.609Z,2.78
2022-09-28T13:03:22.137Z,4.75
2022-09-28T13:06:21.489Z,9.55
2022-09-28T13:09:02.509Z,2.85
2022-09-28T13:11:34.984Z,4.93
2022-09-28T13:14:24.224Z,3.35
2022-09-28T13:17:00.531Z,6.13
2022-09-28T13:19:35.259Z,6.47
2022-09-28T13:22:11.869Z,4.70
2022-09-28T13:24:44.375Z,4.60
2022-09-28T13:27:17.398Z,4.00
2022-09-28T13:29:46.473Z,7.20
2022-09-28T13:32:15.615Z,5.72
2022-09-28T13:34:49.026Z,3.03
2022-09-28T13:37:24.274Z,5.28
2022-09-28T13:39:56.603Z,4.38
2022-09-28T13:42:56.443Z,8.23
2022-09-28T13:45:33.585Z,6.97
2022-09-28T13:48:15.527Z,3.58
2022-09-28T13:51:10.588Z,1.77
2022-09-28T13:53:54.324Z,1.75
2022-09-28T13:56:31.975Z,2.95
2022-09-28T13:59:03.339Z,2.85
2022-09-28T14:01:36.790Z,1.65
2022-09-28T14:04:16.436Z,2.38
2022-09-28T14:06:49.491Z,2.20
2022-09-28T14:09:40.422Z,1.77
2022-09-28T14:12:32.895Z,3.83
2022-09-28T14:15:02.117Z,2.15
2022-09-28T14:17:52.682Z,1.48
2022-09-28T14:20:25.048Z,4.43
2022-09-28T14:23:25.504Z,2.85
2022-09-28T14:26:31.532Z,2.42
2022-09-28T14:29:10.207Z,4.15
2022-09-28T14:31:43.351Z,3.22
2022-09-28T14:34:26.998Z,2.33
2022-09-28T14:37:13.362Z,2.60
2022-09-28T14:40:03.338Z,2.08
2022-09-28T14:42:32.535Z,4.35
2022-09-28T14:45:35.855Z,5.40
2022-09-28T14:48:11.975Z,5.22
2022-09-28T14:50:40.870Z,4.03
2022-09-28T14:53:13.636Z,3.72
2022-09-28T14:55:51.967Z,3.65
2022-09-28T14:58:23.722Z,3.53
2022-09-28T15:00:59.787Z,7.45
2022-09-28T15:03:31.050Z,2.30
2022-09-28T15:05:59.902Z,2.17
2022-09-28T15:08:38.387Z,4.03
2022-09-28T15:11:07.747Z,6.55
2022-09-28T15:13:36.693Z,4.50
2022-09-28T15:16:11.507Z,5.03
2022-09-28T15:19:20.625Z,3.38
2022-09-28T15:21:51.187Z,3.75
2022-09-28T15:24:27.235Z,5.72
2022-09-28T15:26:56.835Z,4.78
2022-09-28T15:29:27.392Z,7.95
2022-09-28T15:31:57.286Z,6.03
2022-09-28T15:34:48.197Z,9.70
2022-09-28T15:37:19.127Z,5.80
2022-09-28T15:39:48.315Z,3.10
2022-09-28T15:42:18.611Z,5.05
2022-09-28T15:45:07.922Z,3.78
2022-09-28T15:47:40.209Z,2.53
2022-09-28T15:50:21.911Z,9.05
2022-09-28T15:52:55.070Z,8.57
2022-09-28T15:55:26.083Z,4.68
2022-09-28T15:58:08.005Z,8.88
2022-09-28T16:00:37.039Z,4.50
2022-09-28T16:03:22.582Z,7.53
2022-09-28T16:05:52.905Z,4.45
2022-09-28T16:08:25.084Z,7.18
2022-09-28T16:11:09.263Z,8.93
2022-09-28T16:13:38.808Z,7.10
2022-09-28T16:16:07.588Z,7.28
2022-09-28T16:18:40.521Z,8.70
2022-09-28T16:21:28.103Z,5.43
2022-09-28T16:23:57.643Z,7.10
2022-09-28T16:26:34.114Z,8.67
2022-09-28T16:29:09.497Z,10.63
2022-09-28T16:31:41.529Z,25.10
2022-09-28T16:34:20.907Z,15.30
2022-09-28T16:36:51.073Z,16.63
2022-09-28T16:39:20.718Z,7.03
2022-09-28T16:41:52.063Z,11.50
2022-09-28T16:44:24.738Z,15.75
2022-09-28T16:46:55.236Z,9.20
2022-09-28T16:49:26.975Z,11.90
2022-09-28T16:51:55.863Z,8.27
2022-09-28T16:54:43.132Z,11.23
2022-09-28T16:57:13.739Z,12.18
2022-09-28T16:59:42.764Z,8.18
2022-09-28T17:05:10.312Z,10.27
2022-09-28T17:07:39.026Z,12.25
2022-09-28T17:10:15.599Z,8.45
2022-09-28T17:12:44.301Z,10.55
2022-09-28T17:15:16.518Z,12.63
2022-09-28T17:17:45.536Z,15.82
2022-09-28T17:20:22.604Z,13.50
2022-09-28T17:22:52.122Z,15.52
2022-09-28T17:25:21.050Z,15.65
2022-09-28T17:27:50.256Z,13.27
2022-09-28T17:30:23.633Z,8.75
2022-09-28T17:32:54.557Z,12.13
2022-09-28T17:35:25.609Z,14.52
2022-09-28T17:37:54.497Z,17.77
2022-09-28T17:40:28.503Z,13.93
2022-09-28T17:42:57.711Z,18.40
2022-09-28T17:45:31.396Z,13.40
2022-09-28T17:48:00.797Z,10.52
2022-09-28T17:50:34.298Z,12.27
2022-09-28T17:53:06.205Z,14.35
2022-09-28T17:55:36.803Z,17.35
2022-09-28T17:58:15.698Z,11.85
2022-09-28T18:00:44.887Z,17.80
2022-09-28T18:03:16.788Z,15.95
2022-09-28T18:05:48.371Z,14.98
2022-09-28T18:08:20.222Z,16.17
2022-09-28T18:10:49.148Z,11.55
2022-09-28T18:13:18.302Z,12.45
2022-09-28T18:15:47.529Z,17.05
2022-09-28T18:18:16.392Z,16.05
2022-09-28T18:20:46.643Z,25.10
2022-09-28T18:23:15.801Z,26.58
2022-09-28T18:25:45.517Z,23.50
2022-09-28T18:28:14.872Z,19.88
2022-09-28T18:30:45.022Z,16.38
2022-09-28T18:33:14.922Z,14.60
2022-09-28T18:35:53.462Z,14.30
2022-09-28T18:38:22.621Z,21.67
2022-09-28T18:40:51.212Z,14.70
2022-09-28T18:43:20.069Z,13.23
2022-09-28T18:45:49.381Z,11.23
2022-09-28T18:48:18.390Z,13.52
2022-09-28T18:50:47.612Z,8.77
2022-09-28T18:53:20.066Z,11.70
2022-09-28T18:55:48.936Z,8.05
2022-09-28T18:58:17.916Z,6.63
2022-09-28T19:00:46.661Z,4.25
2022-09-28T19:03:15.620Z,6.22
2022-09-28T19:05:44.748Z,4.72
2022-09-28T19:08:13.743Z,4.93
2022-09-28T19:10:44.752Z,4.32
2022-09-28T19:13:13.729Z,4.18
2022-09-28T19:15:42.717Z,3.45
2022-09-28T19:18:12.714Z,3.75
2022-09-28T19:20:41.582Z,3.90
2022-09-28T19:23:10.406Z,3.78
2022-09-28T19:25:40.382Z,3.83
2022-09-28T19:28:10.589Z,4.05
2022-09-28T19:30:39.529Z,3.00
2022-09-28T19:33:08.433Z,4.65
2022-09-28T19:35:37.194Z,4.43
2022-09-28T19:38:06.000Z,4.70
2022-09-28T19:40:38.152Z,5.78
2022-09-28T19:43:07.040Z,5.43
2022-09-28T19:45:38.243Z,5.65
2022-09-28T19:48:07.176Z,5.25
2022-09-28T19:50:36.039Z,4.78
2022-09-28T19:53:07.471Z,5.05
2022-09-28T19:55:36.353Z,7.28
2022-09-28T19:58:05.383Z,6.47
2022-09-28T20:00:34.273Z,4.72
2022-09-28T20:03:04.881Z,6.15
2022-09-28T20:05:33.831Z,7.97
2022-09-28T20:10:37.162Z,5.53
2022-09-28T20:13:06.067Z,4.53
2022-09-28T20:15:37.428Z,6.18
2022-09-28T20:18:08.457Z,3.97
2022-09-28T20:20:37.331Z,5.70
2022-09-28T20:23:06.129Z,7.28
2022-09-28T20:25:34.702Z,5.22
2022-09-28T20:28:03.694Z,9.10
2022-09-28T20:30:33.318Z,7.05
2022-09-28T20:33:02.140Z,5.75
2022-09-28T20:35:33.373Z,5.72
2022-09-28T20:38:08.147Z,11.82
2022-09-28T20:40:36.836Z,7.13
2022-09-28T20:43:06.817Z,7.47
2022-09-28T20:45:36.653Z,5.82
2022-09-28T20:48:06.543Z,7.33
2022-09-28T20:50:36.870Z,5.50
2022-09-28T20:53:05.752Z,8.30
2022-09-28T20:55:34.332Z,4.68
2022-09-28T20:58:04.529Z,7.25
2022-09-28T21:00:33.308Z,7.93
2022-09-28T21:03:02.208Z,8.40
2022-09-28T21:05:31.090Z,8.57
2022-09-28T21:08:01.378Z,6.22
2022-09-28T21:10:30.964Z,6.90
2022-09-28T21:12:59.752Z,8.70
2022-09-28T21:15:29.221Z,5.97
2022-09-28T21:17:58.062Z,11.05
2022-09-28T21:20:26.904Z,7.72
2022-09-28T21:22:55.394Z,8.85
2022-09-28T21:25:25.690Z,8.52
2022-09-28T21:27:54.528Z,7.13
2022-09-28T21:30:23.312Z,9.70
2022-09-28T21:32:53.211Z,12.15
2022-09-28T21:35:22.037Z,14.10
2022-09-28T21:37:50.660Z,11.02
2022-09-28T21:40:20.486Z,12.93
2022-09-28T21:42:51.019Z,17.42
2022-09-28T21:47:53.016Z,15.60
2022-09-28T21:50:23.163Z,16.02
2022-09-28T21:52:52.919Z,14.52
2022-09-28T21:55:23.219Z,15.27
2022-09-28T21:57:53.440Z,17.13
2022-09-28T22:00:24.357Z,17.67
2022-09-28T22:02:53.383Z,21.55
2022-09-28T22:05:22.161Z,16.13
2022-09-28T22:07:50.647Z,21.80
2022-09-28T22:10:19.632Z,16.17
2022-09-28T22:12:48.505Z,17.00
2022-09-28T22:15:18.992Z,20.70
2022-09-28T22:20:16.340Z,17.70
2022-09-28T22:22:44.826Z,23.70
2022-09-28T22:25:13.902Z,21.23
2022-09-28T22:27:42.784Z,22.48
2022-09-28T22:30:12.355Z,25.13
2022-09-28T22:32:42.625Z,27.07
2022-09-28T22:35:11.738Z,32.63
2022-09-28T22:37:40.292Z,30.67
2022-09-28T22:40:11.816Z,34.88
2022-09-28T22:42:40.983Z,50.00
2022-09-28T22:45:10.282Z,35.95
2022-09-28T22:47:39.282Z,45.17
2022-09-28T22:50:10.268Z,49.50
2022-09-28T22:52:38.745Z,46.55
2022-09-28T22:55:08.317Z,53.47
2022-09-28T22:57:37.243Z,199.73
2022-09-28T23:00:07.120Z,137.00
2022-09-28T23:02:36.018Z,231.52
2022-09-28T23:05:05.631Z,237.60
2022-09-28T23:07:35.503Z,298.58
2022-09-28T23:10:04.512Z,343.15
2022-09-28T23:12:35.760Z,326.77
2022-09-28T23:15:06.559Z,314.55
2022-09-28T23:17:35.488Z,215.55
2022-09-28T23:20:04.608Z,330.20
2022-09-28T23:22:33.276Z,397.67
2022-09-28T23:25:03.728Z,320.00
2022-09-28T23:30:01.304Z,70.28
2022-09-28T23:32:32.107Z,201.52
2022-09-28T23:35:01.238Z,51.00
2022-09-28T23:37:29.775Z,88.57
2022-09-28T23:39:58.618Z,146.40
2022-09-28T23:42:29.105Z,88.90
2022-09-28T23:47:26.677Z,122.22
2022-09-28T23:49:55.193Z,102.72
2022-09-28T23:52:24.149Z,94.70
2022-09-28T23:54:52.987Z,69.63
2022-09-28T23:57:21.966Z,44.50
2022-09-28T23:59:52.334Z,76.53
